aviador You're here:

KMIS Decoded Metar

MISSION in SD, USA
Report Time2017-11-20 22:35:00
UTC Time2017-11-20 22:58:44
Flight Rules vfr VFR
WindVRB at 05 Gusting to 11 kt
Visibility9999 m
Phenomena:N/A
Clouds:N/A
Expected CloudBase > 3,200 ft AGL from Temp-Dew spread
CeilingNone
Temp19°C (ISA +9)
Dew Point11°C (60% RH)
AAT17.5°C
QNH1020 hPa
Density Alt3,606 ft
Elevation2,589 ft
Report Wrong Elevation
Raw Report
KMIS 202235Z AUTO VRB05G11KT 10SM CLR 19/11 A3011 RMK A01=

Extra information for KMIS:More info

Metar Taf Metar & Taf Last 4 Metars F.Rules Stats Wind Profile Meteogram Temp Stats Airport Information Weather charts Add Link Nearby VenuesMetar ALERT Operation Metar Decoded Social comments

AIRNAV info for KMIS